Time;durP1;ratioP1;P1;durP2;ratioP2;P2;SDS_P1;SDS_P2;PMS_P1;PMS_P2;Temp;Humidity;BMP_temperature;BMP_pressure;BME280_temperature;BME280_humidity;BME280_pressure;Samples;Min_cycle;Max_cycle;Signal;HPM_P1;HPM_P2
2021/04/17 00:01:34;;;;;;;14.40;13.00;;;1.70;99.90;;;;;;4993332;28;20465;-77
2021/04/17 00:04:02;;;;;;;13.90;12.50;;;1.60;99.90;;;;;;4994744;28;20481;-77
2021/04/17 00:06:29;;;;;;;15.23;13.40;;;1.60;99.90;;;;;;4985173;28;20457;-77
2021/04/17 00:08:56;;;;;;;14.77;13.27;;;1.50;99.90;;;;;;4994543;28;20451;-77
2021/04/17 00:11:23;;;;;;;13.90;12.63;;;1.50;99.90;;;;;;4994026;28;20833;-77
2021/04/17 00:13:49;;;;;;;14.90;13.20;;;1.40;99.90;;;;;;4996616;28;20432;-77
2021/04/17 00:16:16;;;;;;;14.80;13.43;;;1.40;99.90;;;;;;4983090;28;20453;-77
2021/04/17 00:18:42;;;;;;;15.00;13.60;;;1.40;99.90;;;;;;4981266;28;20455;-77
2021/04/17 00:21:08;;;;;;;15.07;13.30;;;1.30;99.90;;;;;;4976962;28;20469;-77
2021/04/17 00:23:35;;;;;;;15.87;14.27;;;1.30;99.90;;;;;;4985972;28;20985;-77
2021/04/17 00:26:02;;;;;;;16.10;14.33;;;1.30;99.90;;;;;;4984396;28;20480;-76
2021/04/17 00:28:29;;;;;;;15.27;13.77;;;1.30;99.90;;;;;;4975964;28;20445;-77
2021/04/17 00:30:55;;;;;;;15.30;13.70;;;1.30;99.90;;;;;;5007855;28;20490;-77
2021/04/17 00:33:22;;;;;;;14.90;13.30;;;1.30;99.90;;;;;;4976590;28;20851;-77
2021/04/17 00:35:48;;;;;;;14.30;13.00;;;1.20;99.90;;;;;;4999731;28;20464;-78
2021/04/17 00:38:15;;;;;;;16.03;14.37;;;1.20;99.90;;;;;;5003182;28;20526;-78
2021/04/17 00:40:41;;;;;;;16.30;14.47;;;1.20;99.90;;;;;;4998750;28;20479;-77
2021/04/17 00:43:09;;;;;;;15.30;13.70;;;1.20;99.90;;;;;;5011564;28;20963;-77
2021/04/17 00:45:35;;;;;;;15.87;14.17;;;1.20;99.90;;;;;;5045352;28;20471;-77
2021/04/17 00:48:02;;;;;;;15.20;13.60;;;1.10;99.90;;;;;;5014178;28;20450;-77
2021/04/17 00:50:28;;;;;;;15.73;14.13;;;1.00;99.90;;;;;;5020067;28;20462;-77
2021/04/17 00:52:55;;;;;;;15.33;13.83;;;1.00;99.90;;;;;;5010426;28;20476;-77
2021/04/17 00:55:23;;;;;;;15.83;14.33;;;1.10;99.90;;;;;;5041937;28;20517;-77
2021/04/17 00:57:49;;;;;;;14.53;13.13;;;1.10;99.90;;;;;;5045127;28;20448;-77
2021/04/17 01:00:18;;;;;;;15.10;13.67;;;1.00;99.90;;;;;;5012061;28;20452;-78
2021/04/17 01:02:51;;;;;;;15.07;13.63;;;1.00;99.90;;;;;;5043198;28;20458;-77
2021/04/17 01:05:20;;;;;;;15.60;14.17;;;1.00;99.90;;;;;;5019375;28;20479;-77
2021/04/17 01:07:49;;;;;;;16.17;14.57;;;1.10;99.90;;;;;;5025996;28;20467;-77
2021/04/17 01:10:23;;;;;;;15.67;14.07;;;1.10;99.90;;;;;;5012126;28;20455;-78
2021/04/17 01:12:53;;;;;;;14.37;12.97;;;1.10;99.90;;;;;;5010777;28;20447;-77
2021/04/17 01:15:21;;;;;;;16.20;14.50;;;1.10;99.90;;;;;;5017790;28;20462;-77
2021/04/17 01:17:51;;;;;;;15.83;14.33;;;1.10;99.90;;;;;;5040998;28;20439;-77
2021/04/17 01:20:22;;;;;;;14.90;13.30;;;1.10;99.90;;;;;;5018963;28;21008;-77
2021/04/17 01:23:05;;;;;;;14.97;13.57;;;1.00;99.90;;;;;;5036038;28;20460;-77
2021/04/17 01:25:46;;;;;;;14.60;13.23;;;0.90;99.90;;;;;;5012313;28;20475;-77
2021/04/17 01:28:14;;;;;;;15.47;13.87;;;0.90;99.90;;;;;;5005997;28;20435;-77
2021/04/17 01:30:41;;;;;;;13.87;12.57;;;0.80;99.90;;;;;;5010484;28;20530;-77
2021/04/17 01:33:09;;;;;;;16.80;15.03;;;0.80;99.90;;;;;;5012100;28;20447;-77
2021/04/17 01:35:36;;;;;;;15.27;13.77;;;0.80;99.90;;;;;;5011113;28;20472;-77
2021/04/17 01:38:13;;;;;;;16.00;14.40;;;0.80;99.90;;;;;;5039793;28;20590;-77
2021/04/17 01:40:44;;;;;;;15.50;14.00;;;0.80;99.90;;;;;;5019401;28;20497;-77
2021/04/17 01:43:12;;;;;;;14.70;13.20;;;0.80;99.90;;;;;;5006770;28;20452;-76
2021/04/17 01:45:39;;;;;;;15.77;14.27;;;0.80;99.90;;;;;;4997751;28;20471;-77
2021/04/17 01:48:07;;;;;;;17.40;15.07;;;0.70;99.90;;;;;;5003309;28;20470;-77
2021/04/17 01:50:35;;;;;;;17.13;15.20;;;0.80;99.90;;;;;;4996944;28;20479;-77
2021/04/17 01:53:03;;;;;;;15.03;13.53;;;0.70;99.90;;;;;;5015326;28;20832;-77
2021/04/17 01:55:34;;;;;;;16.20;14.57;;;0.70;99.90;;;;;;5019224;28;20440;-77
2021/04/17 01:58:03;;;;;;;16.43;14.57;;;0.80;99.90;;;;;;5015852;28;20436;-77
2021/04/17 02:00:30;;;;;;;16.57;14.97;;;0.80;99.90;;;;;;5012250;28;20482;-77
2021/04/17 02:02:56;;;;;;;16.60;14.97;;;0.80;99.90;;;;;;5015668;28;20831;-77
2021/04/17 02:05:23;;;;;;;17.23;15.57;;;0.90;99.90;;;;;;5026862;28;20467;-77
2021/04/17 02:07:49;;;;;;;16.53;14.83;;;0.90;99.90;;;;;;5021553;28;20434;-77
2021/04/17 02:10:15;;;;;;;16.47;14.70;;;0.90;99.90;;;;;;4997807;28;20509;-77
2021/04/17 02:12:42;;;;;;;16.97;15.27;;;0.90;99.90;;;;;;4998220;28;20462;-77
2021/04/17 02:15:10;;;;;;;17.40;15.57;;;0.90;99.90;;;;;;5013402;28;20461;-77
2021/04/17 02:17:49;;;;;;;18.10;16.27;;;0.90;99.90;;;;;;5018503;28;20427;-77
2021/04/17 02:20:22;;;;;;;16.87;15.17;;;0.80;99.90;;;;;;5014536;28;20998;-77
2021/04/17 02:22:49;;;;;;;17.70;15.43;;;0.80;99.90;;;;;;5013043;28;20435;-77
2021/04/17 02:25:17;;;;;;;16.67;14.80;;;0.80;99.90;;;;;;5034320;28;20490;-77
2021/04/17 02:27:43;;;;;;;17.00;14.73;;;0.80;99.90;;;;;;5007263;28;20440;-78
2021/04/17 02:30:11;;;;;;;15.97;14.47;;;0.70;99.90;;;;;;5013142;28;20467;-77
2021/04/17 02:32:38;;;;;;;16.43;14.80;;;0.70;99.90;;;;;;5014951;28;20466;-77
2021/04/17 02:35:05;;;;;;;16.37;14.83;;;0.70;99.90;;;;;;5022388;28;20435;-77
2021/04/17 02:37:31;;;;;;;16.67;15.00;;;0.70;99.90;;;;;;5018116;28;20436;-76
2021/04/17 02:39:57;;;;;;;17.43;15.67;;;0.70;99.90;;;;;;4999834;28;20471;-77
2021/04/17 02:42:24;;;;;;;18.20;16.37;;;0.70;99.90;;;;;;5011455;28;20435;-77
2021/04/17 02:44:50;;;;;;;19.23;15.97;;;0.70;99.90;;;;;;5012570;28;20502;-77
2021/04/17 02:47:18;;;;;;;18.33;16.47;;;0.60;99.90;;;;;;5025808;28;20532;-75
2021/04/17 02:49:44;;;;;;;18.67;16.77;;;0.50;99.90;;;;;;5024418;28;20466;-78
2021/04/17 02:52:10;;;;;;;17.20;15.57;;;0.50;99.90;;;;;;5026116;28;20451;-77
2021/04/17 02:54:37;;;;;;;17.17;15.47;;;0.50;99.90;;;;;;5027284;28;20435;-77
2021/04/17 02:57:03;;;;;;;17.73;15.87;;;0.50;99.90;;;;;;5008407;28;20465;-78
2021/04/17 02:59:30;;;;;;;16.83;15.13;;;0.50;99.90;;;;;;5025507;28;20503;-78
2021/04/17 03:01:56;;;;;;;18.50;16.60;;;0.40;99.90;;;;;;5022779;28;20435;-81
2021/04/17 03:04:23;;;;;;;17.23;15.47;;;0.40;99.90;;;;;;5009765;28;20824;-78
2021/04/17 03:06:50;;;;;;;17.63;15.87;;;0.40;99.90;;;;;;5036443;28;20451;-77
2021/04/17 03:09:17;;;;;;;17.77;15.97;;;0.40;99.90;;;;;;5015299;28;20510;-77
2021/04/17 03:11:43;;;;;;;17.53;15.90;;;0.40;99.90;;;;;;5001656;28;20448;-77
2021/04/17 03:14:09;;;;;;;16.47;14.97;;;0.30;99.90;;;;;;5003757;28;20518;-77
2021/04/17 03:16:36;;;;;;;17.00;15.20;;;0.20;99.90;;;;;;5026326;28;20439;-77
2021/04/17 03:19:02;;;;;;;17.40;15.60;;;0.20;99.90;;;;;;5016348;28;20509;-77
2021/04/17 03:21:29;;;;;;;18.47;16.47;;;0.20;99.90;;;;;;5024963;28;20475;-77
2021/04/17 03:23:56;;;;;;;18.30;16.17;;;0.20;99.90;;;;;;5028439;28;20452;-77
2021/04/17 03:26:22;;;;;;;18.83;16.83;;;0.20;99.90;;;;;;5029607;28;20478;-76
2021/04/17 03:28:48;;;;;;;18.70;16.77;;;0.10;99.90;;;;;;5030027;28;20450;-76
2021/04/17 03:31:15;;;;;;;18.83;16.90;;;0.10;99.90;;;;;;5025658;28;20478;-76
2021/04/17 03:33:41;;;;;;;18.03;16.33;;;0.20;99.90;;;;;;5019824;28;20993;-77
2021/04/17 03:36:08;;;;;;;18.73;16.20;;;0.10;99.90;;;;;;5013843;28;20514;-77
2021/04/17 03:38:35;;;;;;;18.47;16.57;;;0.10;99.90;;;;;;5013194;28;20450;-77
2021/04/17 03:41:02;;;;;;;16.17;14.67;;;0.10;99.90;;;;;;5013769;28;20487;-77
2021/04/17 03:43:28;;;;;;;19.90;17.23;;;0.10;99.90;;;;;;5024412;28;20948;-77
2021/04/17 03:45:54;;;;;;;18.23;15.93;;;0.10;99.90;;;;;;5023959;28;20467;-77
2021/04/17 03:48:21;;;;;;;17.73;15.93;;;0.10;99.90;;;;;;5027411;28;20462;-77
2021/04/17 03:50:47;;;;;;;19.77;17.10;;;0.10;99.90;;;;;;5027882;28;20482;-77
2021/04/17 03:53:13;;;;;;;18.17;16.27;;;0.10;99.90;;;;;;5027515;28;20814;-77
2021/04/17 03:55:41;;;;;;;17.53;15.73;;;0.10;99.90;;;;;;5030217;28;20430;-76
2021/04/17 03:58:08;;;;;;;19.13;17.10;;;0.20;99.90;;;;;;5026275;28;20439;-77
2021/04/17 04:00:34;;;;;;;17.20;15.63;;;0.20;99.90;;;;;;5024988;28;20466;-77
2021/04/17 04:03:01;;;;;;;20.80;17.10;;;0.20;99.90;;;;;;5001094;28;20455;-77
2021/04/17 04:05:27;;;;;;;17.57;15.73;;;0.20;99.90;;;;;;5027295;28;20536;-77
2021/04/17 04:07:53;;;;;;;17.33;15.63;;;0.20;99.90;;;;;;5022793;28;20471;-76
2021/04/17 04:10:20;;;;;;;17.73;15.63;;;0.10;99.90;;;;;;5025998;28;20454;-77
2021/04/17 04:12:47;;;;;;;17.47;15.77;;;0.20;99.90;;;;;;5019990;28;20456;-76
2021/04/17 04:15:14;;;;;;;21.20;17.37;;;0.20;99.90;;;;;;5012474;28;20439;-76
2021/04/17 04:17:42;;;;;;;19.03;16.30;;;0.20;99.90;;;;;;5044247;28;21003;-76
2021/04/17 04:20:09;;;;;;;17.57;15.77;;;0.20;99.90;;;;;;5012258;28;20466;-76
2021/04/17 04:22:36;;;;;;;18.90;16.93;;;0.30;99.90;;;;;;5017589;28;20447;-76
2021/04/17 04:25:03;;;;;;;16.80;15.20;;;0.30;99.90;;;;;;5011333;28;20479;-76
2021/04/17 04:27:30;;;;;;;21.60;18.33;;;0.40;99.90;;;;;;5011147;28;20494;-76
2021/04/17 04:29:57;;;;;;;18.67;16.90;;;0.50;99.90;;;;;;5019220;28;20460;-77
2021/04/17 04:32:23;;;;;;;18.67;16.77;;;0.50;99.90;;;;;;5018177;28;20430;-77
2021/04/17 04:34:50;;;;;;;17.83;16.13;;;0.60;99.90;;;;;;5015367;28;20494;-77
2021/04/17 04:37:16;;;;;;;18.37;16.53;;;0.60;99.90;;;;;;5017327;28;20448;-78
2021/04/17 04:39:42;;;;;;;18.90;17.00;;;0.70;99.90;;;;;;5018762;28;20464;-80
2021/04/17 04:42:09;;;;;;;20.47;18.30;;;0.80;99.90;;;;;;5019584;28;20498;-77
2021/04/17 04:44:36;;;;;;;18.67;16.73;;;0.80;99.90;;;;;;5018868;28;20440;-78
2021/04/17 04:47:04;;;;;;;18.97;17.10;;;0.90;99.90;;;;;;4999720;28;21147;-77
2021/04/17 04:49:30;;;;;;;18.37;16.63;;;1.00;99.90;;;;;;4998563;28;20594;-78
2021/04/17 04:51:57;;;;;;;23.20;18.80;;;1.10;99.90;;;;;;4999689;28;20827;-80
2021/04/17 04:54:23;;;;;;;20.07;17.97;;;1.10;99.90;;;;;;5016218;28;20469;-77
2021/04/17 04:56:49;;;;;;;19.83;17.77;;;1.20;99.90;;;;;;5014690;28;20443;-77
2021/04/17 04:59:15;;;;;;;19.80;17.63;;;1.20;99.90;;;;;;4996190;28;20454;-77
2021/04/17 05:01:42;;;;;;;19.80;17.70;;;1.20;99.90;;;;;;4997733;28;20455;-77
2021/04/17 05:04:09;;;;;;;19.73;17.63;;;1.20;99.90;;;;;;4996900;28;20452;-77
2021/04/17 05:06:35;;;;;;;20.57;18.43;;;1.30;99.90;;;;;;5007053;28;20518;-77
2021/04/17 05:09:02;;;;;;;20.57;18.07;;;1.30;99.90;;;;;;5012888;28;20448;-78
2021/04/17 05:11:28;;;;;;;19.00;16.93;;;1.40;99.90;;;;;;4995313;28;21023;-77
2021/04/17 05:13:54;;;;;;;18.73;16.93;;;1.50;99.90;;;;;;5007901;28;20456;-78
2021/04/17 05:16:21;;;;;;;18.57;16.77;;;1.60;99.90;;;;;;5012361;28;20444;-77
2021/04/17 05:18:47;;;;;;;19.03;17.03;;;1.60;99.90;;;;;;4994454;28;20964;-78
2021/04/17 05:21:14;;;;;;;17.17;15.40;;;1.70;99.90;;;;;;4999366;28;20472;-78
2021/04/17 05:23:40;;;;;;;17.60;15.80;;;1.80;99.90;;;;;;4995562;28;20466;-78
2021/04/17 05:26:07;;;;;;;17.77;15.97;;;1.90;99.90;;;;;;5013148;28;20478;-78
2021/04/17 05:28:34;;;;;;;15.97;11.73;;;2.00;99.90;;;;;;4991662;28;20453;-78
2021/04/17 05:31:00;;;;;;;13.30;11.00;;;2.10;99.90;;;;;;4996120;28;20924;-79
2021/04/17 05:33:26;;;;;;;13.27;10.03;;;2.20;99.90;;;;;;5015694;28;20457;-78
2021/04/17 05:35:53;;;;;;;15.20;13.07;;;2.20;99.90;;;;;;5021333;28;20437;-79
2021/04/17 05:38:20;;;;;;;13.00;10.83;;;2.30;99.90;;;;;;5012793;28;20457;-80
2021/04/17 05:40:46;;;;;;;14.13;10.30;;;2.40;99.90;;;;;;5005293;28;20489;-78
2021/04/17 05:43:12;;;;;;;15.70;14.07;;;2.50;99.90;;;;;;5013304;28;20432;-78
2021/04/17 05:45:39;;;;;;;15.97;14.33;;;2.50;99.90;;;;;;5015799;28;20486;-78
2021/04/17 05:48:06;;;;;;;15.50;11.83;;;2.50;99.90;;;;;;5013252;28;20454;-78
2021/04/17 05:50:32;;;;;;;15.60;12.67;;;2.60;99.90;;;;;;5011693;28;20463;-78
2021/04/17 05:52:59;;;;;;;13.80;12.00;;;2.70;99.90;;;;;;5009068;28;20504;-79
2021/04/17 05:55:26;;;;;;;14.83;12.70;;;2.80;99.90;;;;;;5015242;28;20444;-79
2021/04/17 05:57:52;;;;;;;14.00;11.63;;;2.70;99.90;;;;;;5019275;28;20449;-78
2021/04/17 06:00:20;;;;;;;12.80;10.30;;;2.60;99.90;;;;;;5044631;28;20487;-79
2021/04/17 06:02:46;;;;;;;14.40;11.13;;;2.60;99.90;;;;;;5009146;28;20511;-78
2021/04/17 06:05:13;;;;;;;12.93;10.23;;;2.60;99.90;;;;;;5013745;28;20479;-78
2021/04/17 06:07:39;;;;;;;14.33;10.27;;;2.70;99.90;;;;;;5021310;28;20859;-78
2021/04/17 06:10:07;;;;;;;15.23;11.17;;;2.80;99.90;;;;;;5012674;28;20561;-77
2021/04/17 06:12:35;;;;;;;13.83;10.13;;;2.90;99.90;;;;;;5012341;28;20470;-78
2021/04/17 06:15:01;;;;;;;14.57;10.97;;;3.00;99.90;;;;;;5011906;28;20451;-78
2021/04/17 06:17:28;;;;;;;11.83;9.73;;;3.00;99.90;;;;;;5034823;28;20460;-78
2021/04/17 06:19:54;;;;;;;13.83;10.63;;;3.10;99.90;;;;;;5012735;28;20467;-77
2021/04/17 06:22:20;;;;;;;13.47;10.60;;;3.10;99.90;;;;;;5012067;28;21044;-76
2021/04/17 06:24:47;;;;;;;12.67;9.90;;;3.10;99.90;;;;;;5011499;28;20446;-76
2021/04/17 06:27:13;;;;;;;13.87;10.00;;;3.10;99.90;;;;;;5012798;28;20434;-77
2021/04/17 06:29:40;;;;;;;11.70;10.03;;;3.20;99.90;;;;;;5015116;28;20508;-77
2021/04/17 06:32:07;;;;;;;15.03;11.10;;;3.20;99.90;;;;;;5015203;28;20437;-76
2021/04/17 06:34:33;;;;;;;15.10;11.07;;;3.30;99.90;;;;;;5018757;28;20461;-76
2021/04/17 06:37:00;;;;;;;15.70;11.37;;;3.40;99.90;;;;;;5038995;28;20975;-79
2021/04/17 06:39:26;;;;;;;15.20;12.23;;;3.40;99.90;;;;;;5020487;28;20473;-76
2021/04/17 06:41:53;;;;;;;15.83;12.13;;;3.50;99.90;;;;;;5023420;28;20434;-77
2021/04/17 06:44:22;;;;;;;16.30;12.23;;;3.50;99.90;;;;;;5008622;28;20456;-77
2021/04/17 06:46:51;;;;;;;16.00;11.97;;;3.60;99.90;;;;;;5035356;28;21002;-77
2021/04/17 06:49:17;;;;;;;16.03;12.77;;;3.60;99.90;;;;;;5011866;28;20435;-77
2021/04/17 06:51:47;;;;;;;15.83;11.60;;;3.80;99.90;;;;;;5026111;28;20452;-77
2021/04/17 06:54:19;;;;;;;16.47;11.93;;;4.00;99.90;;;;;;5028170;28;20465;-78
2021/04/17 06:56:46;;;;;;;15.47;12.40;;;4.20;99.90;;;;;;5013539;28;20427;-77
2021/04/17 06:59:14;;;;;;;14.67;11.27;;;4.40;99.90;;;;;;5032131;28;20582;-77
2021/04/17 07:01:41;;;;;;;14.90;11.07;;;4.50;99.90;;;;;;5024489;28;20435;-77
2021/04/17 07:04:08;;;;;;;11.90;9.90;;;4.50;99.90;;;;;;5008462;28;20197;-78
2021/04/17 07:06:35;;;;;;;14.60;11.30;;;4.60;99.90;;;;;;4985181;28;20236;-78
2021/04/17 07:09:01;;;;;;;15.17;12.00;;;4.70;99.90;;;;;;5011353;28;20193;-78
2021/04/17 07:11:28;;;;;;;14.60;11.80;;;4.70;99.90;;;;;;4994234;28;20221;-78
2021/04/17 07:14:07;;;;;;;14.57;11.37;;;5.00;99.90;;;;;;4995110;28;20205;-78
2021/04/17 07:16:53;;;;;;;16.23;13.87;;;5.10;99.90;;;;;;4988530;28;20258;-78
2021/04/17 07:19:21;;;;;;;16.30;14.60;;;5.00;99.90;;;;;;5016853;28;20225;-78
2021/04/17 07:21:47;;;;;;;16.13;14.53;;;5.10;99.90;;;;;;4998238;28;20670;-79
2021/04/17 07:24:24;;;;;;;17.07;15.27;;;5.20;99.90;;;;;;5022168;28;20200;-78
2021/04/17 07:26:50;;;;;;;17.27;14.97;;;5.10;99.90;;;;;;5016159;28;20227;-78
2021/04/17 07:29:17;;;;;;;15.40;13.80;;;5.20;99.90;;;;;;5016951;28;20251;-79
2021/04/17 07:31:51;;;;;;;15.50;13.93;;;5.40;99.90;;;;;;5034024;28;20205;-79
2021/04/17 07:34:21;;;;;;;15.53;13.97;;;5.50;99.90;;;;;;4998699;28;20216;-79
2021/04/17 07:36:54;;;;;;;15.23;12.97;;;5.50;99.90;;;;;;5001080;28;20262;-80
2021/04/17 07:39:37;;;;;;;16.83;15.03;;;5.60;99.90;;;;;;5027455;28;20202;-79
2021/04/17 07:42:07;;;;;;;18.47;16.57;;;5.70;99.90;;;;;;5010980;28;20251;-79
2021/04/17 07:44:37;;;;;;;14.70;11.67;;;6.00;99.90;;;;;;5005364;28;20220;-78
2021/04/17 07:47:04;;;;;;;16.57;12.70;;;6.20;99.90;;;;;;5016829;28;20280;-79
2021/04/17 07:49:31;;;;;;;16.03;13.40;;;6.30;99.90;;;;;;5008306;28;20228;-81
2021/04/17 07:52:01;;;;;;;16.43;13.33;;;6.40;99.90;;;;;;5001078;28;20283;-79
2021/04/17 07:54:28;;;;;;;15.93;13.17;;;6.50;99.90;;;;;;4999161;28;20208;-77
2021/04/17 07:56:54;;;;;;;18.57;15.10;;;6.70;99.90;;;;;;4999795;28;20201;-79
2021/04/17 07:59:22;;;;;;;18.13;15.93;;;7.00;99.90;;;;;;5000805;28;20717;-79
2021/04/17 08:01:50;;;;;;;16.77;13.57;;;7.40;99.90;;;;;;5016229;28;20579;-78
2021/04/17 08:04:23;;;;;;;16.20;14.00;;;7.90;99.90;;;;;;5013189;28;20194;-79
2021/04/17 08:06:51;;;;;;;18.43;14.30;;;8.40;99.90;;;;;;5010787;28;20219;-78
2021/04/17 08:09:20;;;;;;;16.23;13.17;;;8.90;99.90;;;;;;5012069;28;20207;-78
2021/04/17 08:11:50;;;;;;;16.70;12.83;;;9.40;99.90;;;;;;5013098;28;20241;-78
2021/04/17 08:14:19;;;;;;;18.00;16.23;;;9.70;99.90;;;;;;5013510;28;20570;-79
2021/04/17 08:16:46;;;;;;;18.60;16.73;;;9.80;99.90;;;;;;4995742;28;20200;-79
2021/04/17 08:19:12;;;;;;;20.03;17.97;;;9.60;99.90;;;;;;4997142;28;20196;-78
2021/04/17 08:21:39;;;;;;;21.27;18.60;;;9.20;99.90;;;;;;5014871;28;20548;-78
2021/04/17 08:24:08;;;;;;;19.97;17.97;;;8.90;99.90;;;;;;5001782;28;20212;-79
2021/04/17 08:26:35;;;;;;;20.07;17.97;;;8.80;99.90;;;;;;5014726;28;20230;-79
2021/04/17 08:29:02;;;;;;;18.70;16.93;;;8.90;99.90;;;;;;5015121;28;20192;-78
2021/04/17 08:31:31;;;;;;;19.07;17.27;;;8.90;99.90;;;;;;4997164;28;20609;-78
2021/04/17 08:34:21;;;;;;;19.60;17.50;;;8.90;99.90;;;;;;4997638;28;20204;-81
2021/04/17 08:36:50;;;;;;;19.30;17.37;;;9.30;99.90;;;;;;5016492;28;20189;-78
2021/04/17 08:39:51;;;;;;;20.13;17.97;;;9.70;99.90;;;;;;5003053;28;20200;-81
2021/04/17 08:42:19;;;;;;;20.00;18.00;;;9.30;99.90;;;;;;4959206;28;20201;-79
2021/04/17 08:44:46;;;;;;;19.60;17.67;;;9.20;99.90;;;;;;4990185;28;20204;-81
2021/04/17 08:47:14;;;;;;;19.80;17.83;;;9.40;99.90;;;;;;4999442;28;20200;-79
2021/04/17 08:49:42;;;;;;;20.80;17.87;;;9.40;99.90;;;;;;5015167;28;20217;-78
2021/04/17 08:52:21;;;;;;;18.60;16.57;;;9.40;99.90;;;;;;5014600;28;20204;-78
2021/04/17 08:55:16;;;;;;;19.33;17.27;;;9.80;99.90;;;;;;5017196;28;20193;-79
2021/04/17 08:57:43;;;;;;;18.57;16.77;;;10.20;99.90;;;;;;5017412;28;20586;-79
2021/04/17 09:00:11;;;;;;;18.17;16.37;;;10.90;99.90;;;;;;4999296;28;20227;-79
2021/04/17 09:02:49;;;;;;;19.90;18.00;;;11.60;99.90;;;;;;5003853;28;20200;-79
2021/04/17 09:05:17;;;;;;;19.67;17.73;;;12.20;99.90;;;;;;4997769;28;20216;-79
2021/04/17 09:07:46;;;;;;;16.70;15.03;;;12.20;99.90;;;;;;5017489;28;20196;-79
2021/04/17 09:10:33;;;;;;;16.07;14.67;;;11.80;99.90;;;;;;5017582;28;20224;-79
2021/04/17 09:13:31;;;;;;;16.27;14.70;;;11.80;99.90;;;;;;5012820;28;20208;-79
2021/04/17 09:15:59;;;;;;;17.83;15.93;;;11.80;99.90;;;;;;4999590;28;20197;-79
2021/04/17 09:18:45;;;;;;;16.13;14.47;;;12.30;99.90;;;;;;4999456;28;20214;-81
2021/04/17 09:21:38;;;;;;;16.93;15.23;;;11.50;99.90;;;;;;5018948;28;20213;-79
2021/04/17 09:24:25;;;;;;;15.70;14.20;;;11.20;99.90;;;;;;4996335;28;20215;-79
2021/04/17 09:26:52;;;;;;;15.53;14.03;;;11.40;99.90;;;;;;5009493;28;20231;-79
2021/04/17 09:29:24;;;;;;;16.20;14.20;;;11.70;99.90;;;;;;5027298;28;20571;-80
2021/04/17 09:31:52;;;;;;;16.20;14.60;;;11.70;99.90;;;;;;5026330;28;20204;-80
2021/04/17 09:34:19;;;;;;;15.70;14.17;;;12.00;99.90;;;;;;5030183;28;20186;-80
2021/04/17 09:36:48;;;;;;;15.17;13.77;;;11.40;99.90;;;;;;5008580;28;20206;-80
2021/04/17 09:39:24;;;;;;;16.30;14.60;;;11.50;99.90;;;;;;5022948;28;20240;-79
2021/04/17 09:41:56;;;;;;;16.30;14.77;;;11.70;99.90;;;;;;5023127;28;20194;-79
2021/04/17 09:44:22;;;;;;;14.47;13.17;;;11.80;99.90;;;;;;5003120;28;20197;-80
2021/04/17 09:47:04;;;;;;;13.50;12.30;;;11.90;99.90;;;;;;5023669;28;20221;-79
2021/04/17 09:49:41;;;;;;;9.67;8.43;;;12.00;99.90;;;;;;4996057;28;20230;-79
2021/04/17 09:52:09;;;;;;;10.53;8.87;;;12.10;99.90;;;;;;4998676;28;20210;-79
2021/04/17 09:54:35;;;;;;;9.27;7.40;;;11.90;99.90;;;;;;5028960;28;20248;-79
2021/04/17 09:57:07;;;;;;;10.80;7.10;;;12.40;99.90;;;;;;4994124;28;20243;-79
2021/04/17 09:59:34;;;;;;;9.30;6.40;;;12.90;99.90;;;;;;5025150;28;20223;-79
2021/04/17 10:02:02;;;;;;;10.67;7.20;;;13.00;99.90;;;;;;5029504;28;20207;-79
2021/04/17 10:04:51;;;;;;;7.97;6.10;;;13.30;99.90;;;;;;5028910;28;20207;-79
2021/04/17 10:07:17;;;;;;;8.70;7.07;;;13.20;99.90;;;;;;5004774;28;20200;-81
2021/04/17 10:09:58;;;;;;;8.47;6.67;;;13.20;99.80;;;;;;5014295;28;21028;-78
2021/04/17 10:12:25;;;;;;;7.93;6.73;;;13.10;99.80;;;;;;5012183;28;20208;-79
2021/04/17 10:14:52;;;;;;;6.83;6.23;;;13.00;99.90;;;;;;5018036;28;20223;-80
2021/04/17 10:17:19;;;;;;;7.27;6.53;;;12.30;98.30;;;;;;5028456;28;20212;-79
2021/04/17 10:19:45;;;;;;;8.40;6.27;;;12.40;99.10;;;;;;5015952;28;20222;-79
2021/04/17 10:22:12;;;;;;;8.00;6.47;;;11.70;99.20;;;;;;5006427;28;20219;-79
2021/04/17 10:24:40;;;;;;;7.93;6.30;;;11.30;99.80;;;;;;5023047;28;20621;-82
2021/04/17 10:27:09;;;;;;;8.67;5.13;;;11.30;99.90;;;;;;5018003;28;20678;-81
2021/04/17 10:29:42;;;;;;;6.67;5.10;;;11.70;99.90;;;;;;4998720;28;20321;-83
2021/04/17 10:32:14;;;;;;;5.50;4.70;;;11.80;99.90;;;;;;5016965;28;20200;-78
2021/04/17 10:34:42;;;;;;;7.10;5.73;;;11.70;99.90;;;;;;5016703;28;20277;-78
2021/04/17 10:37:11;;;;;;;7.57;5.77;;;11.40;99.90;;;;;;5017228;28;20219;-78
2021/04/17 10:39:38;;;;;;;7.70;5.73;;;11.20;99.90;;;;;;4998868;28;20236;-78
2021/04/17 10:42:08;;;;;;;6.83;5.40;;;11.10;99.90;;;;;;5017660;28;20206;-78
2021/04/17 10:44:35;;;;;;;11.33;8.63;;;11.20;99.90;;;;;;5018748;28;20209;-78
2021/04/17 10:47:05;;;;;;;8.47;7.13;;;10.80;99.90;;;;;;5021723;28;20253;-78
2021/04/17 10:49:34;;;;;;;7.27;6.53;;;11.00;99.90;;;;;;5022608;28;20599;-78
2021/04/17 10:52:01;;;;;;;8.17;7.23;;;11.20;99.90;;;;;;5020510;28;20206;-78
2021/04/17 10:54:28;;;;;;;8.53;7.30;;;11.60;99.90;;;;;;5021615;28;20214;-78
2021/04/17 10:57:03;;;;;;;9.00;5.50;;;11.40;99.90;;;;;;5022383;28;20222;-78
2021/04/17 10:59:51;;;;;;;7.90;6.67;;;11.30;99.90;;;;;;5019431;28;20218;-78
2021/04/17 11:02:26;;;;;;;8.17;7.30;;;11.50;99.90;;;;;;5019335;28;20201;-78
2021/04/17 11:04:53;;;;;;;9.77;8.90;;;11.50;99.90;;;;;;5049944;28;20539;-83
2021/04/17 11:07:20;;;;;;;10.37;9.47;;;11.20;99.20;;;;;;5021766;28;20189;-79
2021/04/17 11:09:48;;;;;;;10.30;9.40;;;11.60;99.40;;;;;;5019581;28;20222;-80
2021/04/17 11:12:24;;;;;;;9.90;9.00;;;11.60;98.70;;;;;;5018935;28;20194;-80
2021/04/17 11:14:50;;;;;;;8.80;8.00;;;12.00;99.80;;;;;;5020105;28;20225;-81
2021/04/17 11:17:18;;;;;;;7.83;6.40;;;12.60;99.10;;;;;;5015080;28;20218;-80
2021/04/17 11:19:46;;;;;;;7.47;6.43;;;12.70;97.30;;;;;;5017050;28;20254;-80
2021/04/17 11:22:14;;;;;;;7.43;6.40;;;12.50;97.40;;;;;;5023327;28;20535;-80
2021/04/17 11:24:43;;;;;;;8.77;6.73;;;12.60;97.80;;;;;;5027305;28;20231;-80
2021/04/17 11:27:10;;;;;;;9.30;7.73;;;12.30;98.10;;;;;;5027878;28;20206;-80
2021/04/17 11:29:36;;;;;;;7.83;7.03;;;12.10;98.10;;;;;;5018029;28;20228;-80
2021/04/17 11:32:03;;;;;;;12.67;11.53;;;11.80;99.70;;;;;;5020199;28;20196;-80
2021/04/17 11:34:29;;;;;;;11.00;9.97;;;11.70;99.60;;;;;;5024778;28;20208;-80
2021/04/17 11:36:56;;;;;;;11.80;10.20;;;11.70;99.90;;;;;;5019529;28;20226;-80
2021/04/17 11:39:23;;;;;;;11.50;10.27;;;12.00;99.90;;;;;;5018213;28;20250;-79
2021/04/17 11:41:49;;;;;;;11.87;10.77;;;11.70;99.70;;;;;;5020422;28;20207;-81
2021/04/17 11:44:15;;;;;;;9.90;9.10;;;11.80;99.20;;;;;;5018469;28;20195;-81
2021/04/17 11:46:42;;;;;;;11.10;10.10;;;12.10;99.30;;;;;;5008271;28;20207;-80
2021/04/17 11:49:08;;;;;;;11.77;10.67;;;12.20;99.90;;;;;;5018247;28;20193;-79
2021/04/17 11:51:34;;;;;;;11.20;10.20;;;12.30;98.70;;;;;;4998291;28;20240;-79
2021/04/17 11:54:02;;;;;;;11.80;10.57;;;12.00;99.00;;;;;;5017694;28;20695;-78
2021/04/17 11:56:28;;;;;;;10.50;9.60;;;12.00;98.90;;;;;;5028552;28;20228;-78
2021/04/17 11:58:55;;;;;;;11.37;10.40;;;12.00;99.10;;;;;;4998900;28;20203;-78
2021/04/17 12:01:21;;;;;;;10.83;9.83;;;12.10;99.20;;;;;;5000673;28;20244;-81
2021/04/17 12:03:47;;;;;;;11.13;10.17;;;12.10;99.10;;;;;;5000340;28;20212;-79
2021/04/17 12:06:14;;;;;;;11.00;10.00;;;11.80;98.50;;;;;;5001242;28;20208;-80
2021/04/17 12:08:40;;;;;;;10.87;9.87;;;11.80;99.80;;;;;;5018074;28;20201;-80
2021/04/17 12:11:07;;;;;;;10.43;9.53;;;11.80;99.30;;;;;;5025055;28;20226;-80
2021/04/17 12:13:35;;;;;;;10.10;9.30;;;11.80;99.10;;;;;;5000839;28;20212;-80
2021/04/17 12:16:01;;;;;;;9.63;8.83;;;12.00;99.60;;;;;;5011786;28;20700;-80
2021/04/17 12:18:28;;;;;;;12.07;9.73;;;12.30;99.30;;;;;;5032533;28;20692;-80
2021/04/17 12:20:54;;;;;;;10.97;9.97;;;12.20;98.40;;;;;;5004823;28;20237;-80
2021/04/17 12:23:21;;;;;;;10.70;9.70;;;12.10;98.40;;;;;;4999473;28;20204;-81
2021/04/17 12:25:47;;;;;;;10.87;9.90;;;12.10;98.10;;;;;;5016962;28;20215;-80
2021/04/17 12:28:15;;;;;;;10.03;9.03;;;12.10;97.80;;;;;;5016706;28;20194;-77
2021/04/17 12:30:41;;;;;;;10.80;9.90;;;12.10;98.80;;;;;;5014444;28;20263;-76
2021/04/17 12:33:08;;;;;;;11.23;10.13;;;12.10;98.00;;;;;;5013845;28;20257;-75
2021/04/17 12:35:36;;;;;;;11.30;10.30;;;12.00;98.90;;;;;;5003384;28;20234;-79
2021/04/17 12:38:03;;;;;;;10.60;9.70;;;12.00;98.90;;;;;;5005619;28;20261;-81
2021/04/17 12:40:29;;;;;;;10.07;9.13;;;11.70;98.80;;;;;;5027121;28;20649;-79
2021/04/17 12:42:55;;;;;;;10.00;9.20;;;11.90;99.00;;;;;;5031661;28;20190;-78
2021/04/17 12:45:23;;;;;;;10.80;9.80;;;11.90;99.10;;;;;;5006240;28;20199;-78